Time;durP1;ratioP1;P1;durP2;ratioP2;P2;SDS_P1;SDS_P2;PMS_P1;PMS_P2;Temp;Humidity;BMP_temperature;BMP_pressure;BME280_temperature;BME280_humidity;BME280_pressure;Samples;Min_cycle;Max_cycle;Signal;HPM_P1;HPM_P2
2022/03/02 00:02:06;;;;;;;34.87;18.17;;;5.40;99.90;;;;;;5022978;28;20049;-68
2022/03/02 00:04:32;;;;;;;30.80;18.47;;;5.40;99.90;;;;;;5040003;28;20037;-68
2022/03/02 00:06:57;;;;;;;35.27;17.47;;;5.40;99.90;;;;;;5021183;28;20459;-68
2022/03/02 00:09:23;;;;;;;36.70;18.70;;;5.40;99.90;;;;;;5031406;28;20110;-68
2022/03/02 00:11:49;;;;;;;35.07;17.07;;;5.30;99.90;;;;;;5038688;28;20059;-68
2022/03/02 00:14:14;;;;;;;34.40;18.00;;;5.30;99.90;;;;;;5037065;28;20059;-68
2022/03/02 00:16:40;;;;;;;34.40;18.47;;;5.40;99.90;;;;;;5025103;28;20041;-68
2022/03/02 00:19:08;;;;;;;36.65;18.20;;;5.40;99.90;;;;;;5033346;28;20045;-68
2022/03/02 00:21:35;;;;;;;32.63;18.42;;;5.30;99.90;;;;;;5023056;28;20077;-68
2022/03/02 00:24:03;;;;;;;33.63;18.23;;;5.40;99.90;;;;;;5027204;28;20427;-67
2022/03/02 00:26:30;;;;;;;33.85;18.60;;;5.30;99.90;;;;;;5024738;28;20524;-68
2022/03/02 00:28:56;;;;;;;34.75;17.80;;;5.30;99.90;;;;;;5030749;28;20436;-68
2022/03/02 00:31:21;;;;;;;33.00;16.97;;;5.30;99.90;;;;;;5022731;28;20048;-68
2022/03/02 00:33:47;;;;;;;31.33;17.60;;;5.30;99.90;;;;;;5025408;28;20534;-68
2022/03/02 00:36:13;;;;;;;34.50;16.80;;;5.30;99.90;;;;;;5024657;28;20037;-68
2022/03/02 00:38:38;;;;;;;38.40;18.40;;;5.30;99.90;;;;;;5016975;28;20108;-67
2022/03/02 00:41:05;;;;;;;38.73;19.40;;;5.30;99.90;;;;;;5022385;28;20037;-68
2022/03/02 00:43:30;;;;;;;33.70;17.27;;;5.30;99.90;;;;;;5021036;28;20558;-67
2022/03/02 00:45:56;;;;;;;33.13;18.10;;;5.20;99.90;;;;;;5017989;28;20061;-68
2022/03/02 00:48:22;;;;;;;39.90;19.13;;;5.20;99.90;;;;;;5020318;28;20517;-67
2022/03/02 00:50:48;;;;;;;41.60;18.63;;;5.10;99.90;;;;;;5029741;28;20211;-67
2022/03/02 00:53:14;;;;;;;33.15;17.42;;;5.10;99.90;;;;;;5012990;28;20037;-67
2022/03/02 00:55:39;;;;;;;32.63;17.52;;;5.10;99.90;;;;;;5034378;22;20045;-66
2022/03/02 00:58:06;;;;;;;37.37;19.07;;;5.10;99.90;;;;;;5038881;28;20137;-67
2022/03/02 01:00:31;;;;;;;36.72;18.88;;;5.10;99.90;;;;;;5045069;28;20519;-68
2022/03/02 01:02:57;;;;;;;36.93;18.70;;;5.10;99.90;;;;;;5036679;28;20332;-67
2022/03/02 01:05:23;;;;;;;34.00;17.93;;;5.10;99.90;;;;;;5005358;28;20038;-67
2022/03/02 01:07:49;;;;;;;32.20;17.57;;;5.10;99.90;;;;;;5011557;28;20136;-67
2022/03/02 01:10:16;;;;;;;35.13;18.27;;;5.10;99.90;;;;;;5020717;28;20056;-66
2022/03/02 01:12:42;;;;;;;34.80;18.73;;;5.10;99.90;;;;;;5016700;28;20132;-67
2022/03/02 01:15:08;;;;;;;;;;;5.10;99.90;;;;;;5015129;28;20041;-67
2022/03/02 01:17:34;;;;;;;38.03;19.42;;;5.10;99.90;;;;;;5025271;28;20385;-67
2022/03/02 01:20:00;;;;;;;36.30;19.17;;;5.00;99.90;;;;;;5012040;28;20034;-67
2022/03/02 01:22:26;;;;;;;39.87;18.97;;;5.10;99.90;;;;;;5014112;28;20525;-67
2022/03/02 01:24:53;;;;;;;38.28;18.50;;;5.00;99.90;;;;;;5017296;28;20843;-67
2022/03/02 01:27:19;;;;;;;35.67;18.65;;;5.00;99.90;;;;;;5020753;28;20049;-67
2022/03/02 01:29:45;;;;;;;37.10;18.80;;;5.00;99.90;;;;;;5021442;28;20142;-67
2022/03/02 01:32:11;;;;;;;41.83;19.60;;;5.00;99.90;;;;;;5020431;28;20220;-67
2022/03/02 01:34:37;;;;;;;34.15;18.08;;;5.00;99.90;;;;;;5012351;28;20050;-68
2022/03/02 01:37:03;;;;;;;;;;;5.00;99.90;;;;;;5000740;28;20076;-67
2022/03/02 01:39:29;;;;;;;36.10;17.42;;;5.00;99.90;;;;;;5010024;28;20007;-67
2022/03/02 01:41:55;;;;;;;36.50;18.33;;;5.00;99.90;;;;;;5014743;28;20073;-67
2022/03/02 01:44:20;;;;;;;40.17;20.33;;;5.00;99.90;;;;;;5019525;28;20473;-67
2022/03/02 01:46:46;;;;;;;35.53;17.30;;;5.00;99.90;;;;;;5019160;28;20057;-67
2022/03/02 01:49:12;;;;;;;39.73;20.97;;;5.00;99.90;;;;;;5013016;28;20490;-67
2022/03/02 01:51:38;;;;;;;35.47;19.00;;;5.00;99.90;;;;;;5014792;28;20049;-67
2022/03/02 01:54:06;;;;;;;38.47;18.23;;;5.00;99.90;;;;;;5018266;28;20499;-67
2022/03/02 01:56:33;;;;;;;39.10;19.45;;;5.10;99.90;;;;;;5017312;28;20108;-67
2022/03/02 01:58:58;;;;;;;38.67;19.65;;;5.00;99.90;;;;;;5015544;28;20639;-67
2022/03/02 02:01:24;;;;;;;38.97;18.53;;;5.00;99.90;;;;;;5023909;28;20227;-67
2022/03/02 02:03:50;;;;;;;43.47;19.83;;;5.10;99.90;;;;;;5019654;28;20474;-67
2022/03/02 02:06:16;;;;;;;39.67;19.27;;;5.00;99.90;;;;;;5014819;28;20241;-67
2022/03/02 02:08:43;;;;;;;37.10;18.90;;;5.00;99.90;;;;;;5015958;28;20045;-67
2022/03/02 02:11:09;;;;;;;;;;;5.00;99.90;;;;;;5017714;28;20291;-67
2022/03/02 02:13:34;;;;;;;39.25;19.65;;;5.00;99.90;;;;;;5014708;28;19925;-67
2022/03/02 02:16:02;;;;;;;40.27;19.97;;;5.00;99.90;;;;;;5018124;28;20112;-67
2022/03/02 02:18:31;;;;;;;37.25;19.80;;;5.00;99.90;;;;;;5016342;28;20489;-67
2022/03/02 02:21:07;;;;;;;42.53;20.65;;;4.90;99.90;;;;;;5022276;28;20137;-67
2022/03/02 02:23:37;;;;;;;37.67;20.20;;;5.00;99.90;;;;;;4998565;28;20131;-67
2022/03/02 02:26:04;;;;;;;36.50;18.70;;;4.90;99.90;;;;;;5013782;28;20049;-67
2022/03/02 02:28:30;;;;;;;39.80;19.85;;;4.90;99.90;;;;;;5016025;28;20037;-67
2022/03/02 02:31:00;;;;;;;41.95;19.70;;;4.90;99.90;;;;;;5021475;28;20049;-67
2022/03/02 02:33:27;;;;;;;44.88;20.15;;;4.90;99.90;;;;;;5018525;28;20060;-67
2022/03/02 02:35:53;;;;;;;39.60;19.35;;;4.90;99.90;;;;;;5013593;28;20037;-67
2022/03/02 02:38:21;;;;;;;41.83;19.27;;;4.80;99.90;;;;;;5020277;28;20064;-68
2022/03/02 02:40:48;;;;;;;41.22;20.85;;;4.80;99.90;;;;;;5027405;28;20417;-67
2022/03/02 02:43:16;;;;;;;42.30;19.48;;;4.80;99.90;;;;;;5010664;28;20034;-67
2022/03/02 02:45:42;;;;;;;38.25;19.25;;;4.70;99.90;;;;;;5020002;28;20049;-67
2022/03/02 02:48:08;;;;;;;45.80;20.63;;;4.70;99.90;;;;;;5013418;28;20048;-67
2022/03/02 02:50:35;;;;;;;38.10;19.10;;;4.70;99.90;;;;;;5014296;28;20049;-68
2022/03/02 02:53:03;;;;;;;38.85;19.73;;;4.60;99.90;;;;;;5016257;28;20064;-67
2022/03/02 02:55:30;;;;;;;48.83;20.67;;;4.60;99.90;;;;;;5022475;28;20095;-67
2022/03/02 02:57:57;;;;;;;45.25;21.13;;;4.60;99.90;;;;;;5019252;28;20109;-66
2022/03/02 03:00:26;;;;;;;43.92;20.05;;;4.60;99.90;;;;;;5022020;28;20077;-67
2022/03/02 03:02:54;;;;;;;48.97;21.95;;;4.50;99.90;;;;;;5015000;28;20119;-67
2022/03/02 03:05:22;;;;;;;41.58;20.65;;;4.50;99.90;;;;;;5012807;28;21136;-66
2022/03/02 03:07:49;;;;;;;41.13;20.45;;;4.40;99.90;;;;;;5025657;28;20193;-66
2022/03/02 03:10:16;;;;;;;42.97;21.00;;;4.40;99.90;;;;;;5014702;28;20046;-67
2022/03/02 03:12:43;;;;;;;41.20;19.58;;;4.30;99.90;;;;;;5022513;28;20060;-67
2022/03/02 03:15:12;;;;;;;39.60;20.33;;;4.30;99.90;;;;;;5022291;28;20120;-66
2022/03/02 03:17:38;;;;;;;45.95;20.85;;;4.30;99.90;;;;;;5027963;28;20045;-66
2022/03/02 03:20:06;;;;;;;47.40;20.02;;;4.20;99.90;;;;;;5024698;28;20033;-67
2022/03/02 03:22:32;;;;;;;45.60;20.83;;;4.20;99.90;;;;;;5021120;28;20481;-66
2022/03/02 03:24:58;;;;;;;47.10;22.00;;;4.10;99.90;;;;;;5026015;28;20075;-67
2022/03/02 03:27:23;;;;;;;41.83;20.80;;;4.10;99.90;;;;;;5018743;28;20049;-67
2022/03/02 03:29:49;;;;;;;45.97;22.13;;;4.10;99.90;;;;;;5028647;28;20033;-67
2022/03/02 03:32:14;;;;;;;43.87;20.43;;;4.10;99.90;;;;;;5014523;28;20044;-67
2022/03/02 03:34:40;;;;;;;40.90;20.20;;;4.00;99.90;;;;;;5012970;28;21367;-67
2022/03/02 03:37:06;;;;;;;42.57;20.93;;;3.90;99.90;;;;;;5027114;28;20075;-75
2022/03/02 03:39:32;;;;;;;46.90;21.47;;;3.90;99.90;;;;;;5036593;28;20041;-67
2022/03/02 03:41:57;;;;;;;43.43;20.50;;;3.90;99.90;;;;;;5025744;28;20034;-67
2022/03/02 03:44:24;;;;;;;46.30;20.07;;;3.90;99.90;;;;;;5022301;28;20230;-67
2022/03/02 03:46:49;;;;;;;47.85;21.55;;;3.80;99.90;;;;;;5012141;28;20548;-67
2022/03/02 03:49:15;;;;;;;49.70;23.07;;;3.80;99.90;;;;;;5032761;28;20038;-67
2022/03/02 03:51:41;;;;;;;40.73;21.87;;;3.70;99.90;;;;;;5027215;28;20036;-67
2022/03/02 03:54:08;;;;;;;44.20;22.17;;;3.70;99.90;;;;;;5024009;28;20552;-67
2022/03/02 03:56:33;;;;;;;41.33;20.63;;;3.60;99.90;;;;;;5018079;28;20072;-67
2022/03/02 03:58:59;;;;;;;44.03;21.73;;;3.60;99.90;;;;;;5031844;28;20045;-67
2022/03/02 04:01:25;;;;;;;44.80;22.40;;;3.60;99.90;;;;;;5014098;28;20395;-67
2022/03/02 04:03:51;;;;;;;47.15;22.73;;;3.50;99.90;;;;;;5010378;28;20037;-68
2022/03/02 04:06:16;;;;;;;47.53;21.40;;;3.50;99.90;;;;;;5026522;28;20049;-67
2022/03/02 04:08:43;;;;;;;53.83;22.33;;;3.40;99.90;;;;;;5026037;28;20088;-67
2022/03/02 04:11:09;;;;;;;46.45;22.42;;;3.40;99.90;;;;;;5028253;28;20041;-67
2022/03/02 04:13:34;;;;;;;53.53;23.67;;;3.40;99.90;;;;;;5022927;28;20060;-67
2022/03/02 04:16:00;;;;;;;49.43;22.57;;;3.30;99.90;;;;;;5029609;28;20032;-67
2022/03/02 04:18:26;;;;;;;48.27;22.53;;;3.30;99.90;;;;;;5030004;28;20045;-67
2022/03/02 04:20:54;;;;;;;53.30;22.03;;;3.30;99.90;;;;;;5029909;28;20038;-67
2022/03/02 04:23:21;;;;;;;51.00;23.23;;;3.20;99.90;;;;;;5024339;28;20045;-67
2022/03/02 04:25:48;;;;;;;49.53;23.48;;;3.20;99.90;;;;;;5029129;28;20120;-67
2022/03/02 04:28:13;;;;;;;51.03;23.08;;;3.10;99.90;;;;;;5027896;28;20041;-67
2022/03/02 04:30:39;;;;;;;45.92;21.83;;;3.20;99.90;;;;;;5031387;28;21612;-67
2022/03/02 04:33:05;;;;;;;49.67;24.40;;;3.10;99.90;;;;;;5025397;28;20417;-67
2022/03/02 04:35:31;;;;;;;47.88;22.20;;;3.10;99.90;;;;;;5018602;28;21403;-67
2022/03/02 04:37:57;;;;;;;49.30;21.98;;;3.00;99.90;;;;;;5028616;28;20041;-67
2022/03/02 04:40:23;;;;;;;48.58;22.90;;;3.00;99.90;;;;;;5025803;28;20051;-68
2022/03/02 04:42:49;;;;;;;59.28;23.90;;;3.00;99.90;;;;;;5026831;28;20045;-67
2022/03/02 04:45:15;;;;;;;57.38;23.42;;;3.00;99.90;;;;;;5028948;28;20041;-67
2022/03/02 04:47:41;;;;;;;50.57;23.70;;;3.00;99.90;;;;;;5030543;28;20048;-67
2022/03/02 04:50:07;;;;;;;;;;;2.90;99.90;;;;;;5021863;28;20038;-67
2022/03/02 04:52:33;;;;;;;48.88;21.60;;;2.90;99.90;;;;;;5025364;28;19932;-67
2022/03/02 04:55:09;;;;;;;57.57;25.23;;;2.90;99.90;;;;;;5029329;28;20037;-67
2022/03/02 04:57:47;;;;;;;54.03;24.45;;;2.80;99.90;;;;;;5021566;28;20041;-67
2022/03/02 05:00:19;;;;;;;54.55;23.92;;;2.80;99.90;;;;;;5030617;28;20401;-67
2022/03/02 05:02:45;;;;;;;53.15;24.88;;;2.80;99.90;;;;;;5027187;28;20041;-67
2022/03/02 05:05:13;;;;;;;48.17;22.17;;;2.70;99.90;;;;;;5020326;28;20049;-67
2022/03/02 05:07:39;;;;;;;52.83;22.40;;;2.70;99.90;;;;;;5028827;28;20540;-67
2022/03/02 05:10:06;;;;;;;52.45;22.48;;;2.70;99.90;;;;;;5025814;28;20505;-67
2022/03/02 05:12:33;;;;;;;55.42;23.60;;;2.70;99.90;;;;;;5031279;28;20158;-67
2022/03/02 05:14:58;;;;;;;61.03;24.60;;;2.70;99.90;;;;;;5025642;28;20056;-67
2022/03/02 05:17:24;;;;;;;53.83;23.80;;;2.70;99.90;;;;;;5027285;28;20034;-67
2022/03/02 05:19:50;;;;;;;52.13;22.87;;;2.60;99.90;;;;;;5022843;28;20498;-67
2022/03/02 05:22:16;;;;;;;54.20;24.08;;;2.60;99.90;;;;;;5024144;28;20071;-67
2022/03/02 05:24:42;;;;;;;50.43;23.93;;;2.60;99.90;;;;;;5030753;28;20037;-67
2022/03/02 05:27:08;;;;;;;55.53;25.27;;;2.60;99.90;;;;;;5027686;28;20052;-67
2022/03/02 05:29:34;;;;;;;58.30;25.00;;;2.60;99.90;;;;;;5030121;28;20128;-67
2022/03/02 05:32:00;;;;;;;52.65;24.48;;;2.50;99.90;;;;;;5021534;28;20037;-67
2022/03/02 05:34:26;;;;;;;54.42;23.75;;;2.50;99.90;;;;;;5018700;28;20029;-67
2022/03/02 05:36:51;;;;;;;55.67;24.23;;;2.50;99.90;;;;;;5024327;28;20402;-68
2022/03/02 05:39:17;;;;;;;56.57;24.17;;;2.50;99.90;;;;;;5020873;28;20045;-67
2022/03/02 05:41:43;;;;;;;50.38;23.15;;;2.50;99.90;;;;;;5017499;28;20509;-67
2022/03/02 05:44:09;;;;;;;56.17;24.63;;;2.40;99.90;;;;;;5024990;28;20561;-67
2022/03/02 05:46:38;;;;;;;52.87;24.40;;;2.40;99.90;;;;;;5020786;28;20410;-67
2022/03/02 05:49:05;;;;;;;56.95;24.05;;;2.40;99.90;;;;;;5018319;28;20038;-67
2022/03/02 05:51:31;;;;;;;51.83;23.67;;;2.40;99.90;;;;;;5026842;28;20049;-67
2022/03/02 05:53:58;;;;;;;51.22;23.40;;;2.40;99.90;;;;;;5025916;28;20499;-67
2022/03/02 05:56:24;;;;;;;57.00;24.42;;;2.30;99.90;;;;;;5024321;28;20234;-67
2022/03/02 05:58:51;;;;;;;51.83;23.73;;;2.30;99.90;;;;;;5025977;28;20050;-67
2022/03/02 06:01:17;;;;;;;;;;;2.30;99.90;;;;;;5032140;28;20500;-67
2022/03/02 06:03:44;;;;;;;47.97;21.50;;;2.30;99.90;;;;;;5031150;28;19921;-67
2022/03/02 06:06:10;;;;;;;;;;;2.30;99.90;;;;;;5020646;28;20517;-67
2022/03/02 06:08:35;;;;;;;49.03;21.45;;;2.30;99.90;;;;;;5020722;28;19921;-67
2022/03/02 06:11:01;;;;;;;51.27;23.93;;;2.30;99.90;;;;;;5028523;28;20127;-67
2022/03/02 06:13:27;;;;;;;58.50;23.53;;;2.20;99.90;;;;;;5027264;28;20061;-67
2022/03/02 06:15:53;;;;;;;50.93;24.23;;;2.20;99.90;;;;;;5024567;28;20081;-67
2022/03/02 06:18:18;;;;;;;53.08;23.33;;;2.20;99.90;;;;;;5020928;28;20703;-67
2022/03/02 06:20:49;;;;;;;55.57;22.70;;;2.20;99.90;;;;;;5023391;28;20125;-67
2022/03/02 06:23:15;;;;;;;57.28;24.20;;;2.20;99.90;;;;;;5026435;28;20640;-67
2022/03/02 06:25:41;;;;;;;49.10;24.40;;;2.20;99.90;;;;;;5028917;28;20038;-67
2022/03/02 06:28:06;;;;;;;53.03;23.80;;;2.20;99.90;;;;;;5031020;28;20052;-67
2022/03/02 06:30:32;;;;;;;55.03;24.50;;;2.20;99.90;;;;;;5024259;28;20386;-67
2022/03/02 06:32:58;;;;;;;50.13;23.90;;;2.20;99.90;;;;;;5025479;28;20038;-70
2022/03/02 06:35:24;;;;;;;49.35;23.73;;;2.10;99.90;;;;;;5025698;28;20037;-72
2022/03/02 06:37:50;;;;;;;52.13;26.37;;;2.10;99.90;;;;;;5016256;28;20052;-72
2022/03/02 06:40:15;;;;;;;51.60;23.37;;;2.10;99.90;;;;;;5025994;28;20072;-69
2022/03/02 06:43:02;;;;;;;46.00;22.53;;;2.10;99.90;;;;;;5028493;28;20367;-69
2022/03/02 06:45:58;;;;;;;49.65;24.10;;;2.10;99.90;;;;;;5029582;28;20064;-69
2022/03/02 06:48:41;;;;;;;50.28;23.90;;;2.10;99.90;;;;;;5032130;28;20121;-72
2022/03/02 06:51:08;;;;;;;53.10;23.25;;;2.10;99.90;;;;;;5029633;28;20049;-68
2022/03/02 06:53:36;;;;;;;48.97;24.13;;;2.10;99.90;;;;;;5026808;28;20191;-70
2022/03/02 06:58:39;;;;;;;53.38;24.48;;;2.10;99.90;;;;;;5050811;28;20146;-68
2022/03/02 07:01:08;;;;;;;51.78;23.58;;;2.10;99.90;;;;;;5043568;28;20051;-68
2022/03/02 07:03:37;;;;;;;51.22;23.77;;;2.10;99.90;;;;;;5059549;28;20102;-68
2022/03/02 07:06:04;;;;;;;50.17;22.75;;;2.10;99.90;;;;;;5051910;28;20037;-69
2022/03/02 07:08:30;;;;;;;52.03;24.00;;;2.10;99.90;;;;;;5039740;28;20040;-69
2022/03/02 07:10:56;;;;;;;52.30;23.67;;;2.10;99.90;;;;;;5035810;28;20044;-69
2022/03/02 07:13:22;;;;;;;53.00;23.83;;;2.10;99.90;;;;;;5044757;28;20408;-69
2022/03/02 07:15:49;;;;;;;54.13;24.67;;;2.20;99.90;;;;;;5049112;28;20115;-69
2022/03/02 07:18:15;;;;;;;;;;;2.10;99.90;;;;;;5064017;28;20037;-68
2022/03/02 07:20:43;;;;;;;49.83;22.92;;;2.20;99.90;;;;;;5065901;28;19935;-68
2022/03/02 07:23:13;;;;;;;50.75;22.80;;;2.20;99.90;;;;;;5047737;28;20040;-69
2022/03/02 07:25:42;;;;;;;50.67;23.23;;;2.20;99.90;;;;;;5037799;28;20140;-68
2022/03/02 07:28:12;;;;;;;48.85;22.42;;;2.20;99.90;;;;;;5066225;28;20542;-69
2022/03/02 07:30:39;;;;;;;45.67;22.58;;;2.30;99.90;;;;;;5046355;28;20160;-69
2022/03/02 07:33:05;;;;;;;;;;;2.30;99.90;;;;;;5048759;28;20546;-68
2022/03/02 07:35:34;;;;;;;46.40;21.48;;;2.30;99.90;;;;;;5055636;28;19924;-69
2022/03/02 07:38:01;;;;;;;42.92;21.95;;;2.30;99.90;;;;;;5047817;28;20041;-68
2022/03/02 07:40:27;;;;;;;46.05;22.80;;;2.40;99.90;;;;;;5048043;28;20045;-69
2022/03/02 07:42:52;;;;;;;47.23;24.27;;;2.40;99.90;;;;;;5042977;28;20033;-68
2022/03/02 07:45:18;;;;;;;50.63;23.57;;;2.40;99.90;;;;;;5046291;28;20425;-69
2022/03/02 07:47:45;;;;;;;53.33;24.00;;;2.50;99.90;;;;;;5059010;28;20041;-68
2022/03/02 07:50:12;;;;;;;49.60;24.60;;;2.50;99.90;;;;;;5039683;28;20502;-68
2022/03/02 07:52:39;;;;;;;49.70;23.15;;;2.60;99.90;;;;;;5048545;28;20212;-68
2022/03/02 07:55:09;;;;;;;50.33;22.70;;;2.60;99.90;;;;;;5047982;28;20044;-69
2022/03/02 07:57:36;;;;;;;48.28;22.75;;;2.60;99.90;;;;;;5049897;28;20044;-68
2022/03/02 08:00:03;;;;;;;48.65;24.05;;;2.70;99.90;;;;;;5063211;28;20458;-68
2022/03/02 08:02:30;;;;;;;52.55;22.98;;;2.80;99.90;;;;;;5029383;28;20436;-68
2022/03/02 08:04:56;;;;;;;51.15;22.65;;;2.80;99.90;;;;;;5036811;28;20438;-68
2022/03/02 08:07:22;;;;;;;47.75;22.55;;;2.90;99.90;;;;;;5043625;28;20092;-69
2022/03/02 08:09:51;;;;;;;45.43;22.97;;;2.90;99.90;;;;;;5044121;28;20093;-68
2022/03/02 08:12:20;;;;;;;47.67;23.30;;;3.00;99.90;;;;;;5045651;28;20037;-68
2022/03/02 08:14:47;;;;;;;54.13;23.33;;;3.00;99.90;;;;;;5046079;28;20065;-69
2022/03/02 08:17:13;;;;;;;46.72;23.08;;;3.20;99.90;;;;;;5062860;28;20068;-69
2022/03/02 08:19:39;;;;;;;49.27;22.87;;;3.20;99.90;;;;;;5048525;28;20068;-69
2022/03/02 08:22:12;;;;;;;47.03;22.83;;;3.30;99.90;;;;;;5048129;28;20048;-69
2022/03/02 08:24:43;;;;;;;45.65;21.77;;;3.30;99.90;;;;;;5042616;28;20052;-69
2022/03/02 08:27:12;;;;;;;42.78;19.83;;;3.40;99.90;;;;;;5050110;28;20024;-68
2022/03/02 08:29:38;;;;;;;50.10;22.50;;;3.40;99.90;;;;;;5051449;28;20098;-69
2022/03/02 08:32:05;;;;;;;46.75;22.23;;;3.50;99.90;;;;;;5061813;28;20041;-69
2022/03/02 08:34:33;;;;;;;46.90;21.88;;;3.60;99.90;;;;;;5039488;28;20040;-69
2022/03/02 08:37:01;;;;;;;45.35;21.20;;;3.60;99.90;;;;;;5063521;28;20037;-69
2022/03/02 08:39:28;;;;;;;50.47;21.55;;;3.70;99.90;;;;;;5065824;28;20438;-68
2022/03/02 08:41:54;;;;;;;;;;;3.80;99.90;;;;;;5048542;28;20247;-68
2022/03/02 08:44:20;;;;;;;40.28;20.17;;;3.90;99.90;;;;;;5060846;28;19916;-68
2022/03/02 08:46:46;;;;;;;;;;;4.00;99.90;;;;;;5069652;28;20462;-69
2022/03/02 08:49:13;;;;;;;43.30;19.77;;;4.00;99.90;;;;;;5062012;28;20100;-68
2022/03/02 08:51:40;;;;;;;42.58;20.63;;;4.10;99.90;;;;;;5044502;28;20407;-68
2022/03/02 08:54:08;;;;;;;44.80;24.10;;;4.20;99.90;;;;;;5045417;28;20048;-69
2022/03/02 08:56:37;;;;;;;39.42;20.80;;;4.20;99.90;;;;;;5048034;28;20523;-68
2022/03/02 08:59:05;;;;;;;46.22;21.20;;;4.30;99.90;;;;;;5066077;28;20446;-69
2022/03/02 09:01:31;;;;;;;43.60;21.27;;;4.40;99.90;;;;;;5039798;28;20115;-68
2022/03/02 09:03:59;;;;;;;43.33;21.23;;;4.50;99.90;;;;;;5042386;28;20045;-69
2022/03/02 09:06:27;;;;;;;41.85;20.63;;;4.60;99.90;;;;;;5035636;28;20053;-69
2022/03/02 09:08:53;;;;;;;42.50;22.45;;;4.60;99.90;;;;;;5063546;28;20503;-68
2022/03/02 09:11:19;;;;;;;40.40;19.88;;;4.70;99.90;;;;;;5046439;28;20051;-69
2022/03/02 09:13:44;;;;;;;41.70;20.30;;;4.80;99.90;;;;;;5045475;28;20052;-69
2022/03/02 09:16:10;;;;;;;40.10;20.80;;;4.90;99.90;;;;;;5058931;28;20041;-68
2022/03/02 09:18:36;;;;;;;45.60;21.30;;;5.00;99.90;;;;;;5066898;28;20248;-68
2022/03/02 09:21:04;;;;;;;42.63;20.85;;;5.10;99.90;;;;;;5061219;28;20029;-69
2022/03/02 09:23:32;;;;;;;44.25;21.52;;;5.20;99.90;;;;;;5062724;28;20125;-69
2022/03/02 09:26:09;;;;;;;44.85;21.83;;;5.30;99.90;;;;;;5065313;28;20323;-68
2022/03/02 09:28:37;;;;;;;;;;;5.30;99.90;;;;;;5067181;28;20054;-67
2022/03/02 09:31:06;;;;;;;40.60;20.15;;;5.40;99.90;;;;;;5063459;28;19973;-68
2022/03/02 09:33:34;;;;;;;40.20;20.45;;;5.50;99.90;;;;;;5050006;28;20040;-68
2022/03/02 09:36:03;;;;;;;39.90;21.40;;;5.50;99.90;;;;;;5023547;28;20125;-68
2022/03/02 09:38:31;;;;;;;39.78;20.85;;;5.60;99.90;;;;;;5065705;28;20157;-67
2022/03/02 09:41:23;;;;;;;42.60;19.55;;;5.70;99.90;;;;;;5062494;28;20072;-67
2022/03/02 09:43:50;;;;;;;43.13;20.08;;;5.80;99.90;;;;;;5063212;28;20059;-68
2022/03/02 09:46:21;;;;;;;39.20;21.35;;;5.90;99.90;;;;;;5038043;28;20055;-68
2022/03/02 09:48:48;;;;;;;38.38;20.65;;;6.00;99.90;;;;;;5057536;28;20067;-68
2022/03/02 09:51:20;;;;;;;;;;;6.00;99.90;;;;;;5051941;28;20393;-68
2022/03/02 09:53:48;;;;;;;39.00;19.25;;;6.00;99.90;;;;;;5064763;28;20021;-68
2022/03/02 09:56:15;;;;;;;41.25;19.83;;;6.10;99.90;;;;;;5063756;28;20044;-68
2022/03/02 09:58:44;;;;;;;38.40;19.55;;;6.20;99.90;;;;;;5063154;28;20036;-68
2022/03/02 10:01:15;;;;;;;42.33;19.83;;;6.30;99.90;;;;;;5045079;28;20374;-68
2022/03/02 10:03:46;;;;;;;40.42;20.40;;;6.40;99.90;;;;;;5062246;28;20045;-68
2022/03/02 10:06:12;;;;;;;39.50;19.55;;;6.50;99.90;;;;;;5043267;28;20105;-67
2022/03/02 10:08:50;;;;;;;40.72;20.60;;;6.60;99.90;;;;;;5070372;28;20493;-69
2022/03/02 10:11:24;;;;;;;37.58;19.55;;;6.70;99.90;;;;;;5051392;28;20118;-68
2022/03/02 10:13:55;;;;;;;41.22;19.92;;;6.80;99.90;;;;;;5068999;28;20040;-69
2022/03/02 10:16:24;;;;;;;38.60;19.25;;;6.90;99.90;;;;;;5053739;28;20123;-68
2022/03/02 10:18:59;;;;;;;36.00;17.88;;;7.00;99.90;;;;;;5045718;28;20048;-68
2022/03/02 10:21:33;;;;;;;35.45;18.27;;;7.10;99.90;;;;;;5049484;28;20365;-68
2022/03/02 10:24:03;;;;;;;39.00;18.17;;;7.30;99.90;;;;;;5063782;28;20472;-69
2022/03/02 10:26:31;;;;;;;39.08;19.10;;;7.40;99.90;;;;;;5074270;28;20044;-69
2022/03/02 10:29:11;;;;;;;42.10;18.10;;;7.40;99.90;;;;;;5067789;28;20164;-68
2022/03/02 10:32:00;;;;;;;36.03;18.33;;;7.60;99.90;;;;;;5064083;28;20419;-69
2022/03/02 10:34:26;;;;;;;35.53;17.55;;;7.70;99.90;;;;;;5066349;28;20032;-69
2022/03/02 10:37:15;;;;;;;34.00;16.73;;;7.80;99.90;;;;;;5061400;28;20037;-68
2022/03/02 10:40:12;;;;;;;32.92;16.75;;;8.00;99.90;;;;;;5039660;28;20109;-68
2022/03/02 10:43:01;;;;;;;34.28;18.20;;;8.10;99.90;;;;;;5074296;28;20047;-69
2022/03/02 10:45:35;;;;;;;31.88;16.38;;;8.30;99.90;;;;;;5053195;28;20040;-69
2022/03/02 10:48:12;;;;;;;33.25;17.42;;;8.30;99.90;;;;;;5042943;28;20086;-68
2022/03/02 10:50:40;;;;;;;29.30;15.82;;;8.40;99.90;;;;;;5064012;28;20043;-69
2022/03/02 10:53:12;;;;;;;33.88;16.45;;;8.40;99.90;;;;;;5048375;28;20044;-69
2022/03/02 10:55:41;;;;;;;29.02;15.40;;;8.50;99.90;;;;;;5062889;28;20135;-69
2022/03/02 10:58:07;;;;;;;28.63;15.00;;;8.60;99.90;;;;;;5061815;28;20033;-69
2022/03/02 11:00:33;;;;;;;32.30;17.20;;;8.60;99.90;;;;;;5070481;28;20389;-69
2022/03/02 11:02:59;;;;;;;32.35;15.65;;;8.60;99.90;;;;;;5064408;28;20113;-69
2022/03/02 11:05:30;;;;;;;30.70;15.80;;;8.70;99.90;;;;;;5060144;28;20078;-69
2022/03/02 11:07:57;;;;;;;29.70;15.18;;;8.80;99.90;;;;;;5057780;28;20041;-69
2022/03/02 11:10:37;;;;;;;28.48;14.57;;;8.90;98.50;;;;;;5048594;28;20409;-68
2022/03/02 11:13:12;;;;;;;26.75;14.43;;;9.00;96.20;;;;;;5063463;28;20052;-69
2022/03/02 11:15:46;;;;;;;33.13;16.92;;;9.10;90.10;;;;;;5061089;28;20511;-69
2022/03/02 11:18:16;;;;;;;30.58;15.77;;;9.10;92.70;;;;;;5063175;28;20044;-69
2022/03/02 11:20:52;;;;;;;29.00;15.90;;;9.20;94.10;;;;;;5069080;28;20040;-69
2022/03/02 11:23:22;;;;;;;35.60;14.48;;;9.30;91.90;;;;;;5063338;28;20045;-69
2022/03/02 11:25:51;;;;;;;28.08;14.57;;;9.40;92.40;;;;;;5066537;28;20049;-69
2022/03/02 11:28:19;;;;;;;27.33;15.98;;;9.50;91.30;;;;;;5048726;28;20080;-69
2022/03/02 11:30:50;;;;;;;34.78;16.20;;;9.60;90.20;;;;;;5057043;28;20408;-69
2022/03/02 11:33:20;;;;;;;29.50;14.80;;;9.60;87.30;;;;;;5065010;28;20036;-69
2022/03/02 11:35:46;;;;;;;30.65;15.15;;;9.70;87.70;;;;;;5058774;28;20448;-69
2022/03/02 11:38:19;;;;;;;29.77;14.90;;;9.70;85.60;;;;;;5059258;28;20048;-68
2022/03/02 11:40:50;;;;;;;27.23;15.02;;;9.80;85.70;;;;;;5058540;28;20043;-69
2022/03/02 11:43:22;;;;;;;27.50;14.73;;;9.90;85.50;;;;;;5063833;28;20044;-69
2022/03/02 11:45:58;;;;;;;28.92;15.23;;;9.90;82.90;;;;;;5032280;28;20437;-70
2022/03/02 11:48:26;;;;;;;30.00;15.90;;;10.00;81.20;;;;;;5058046;28;20040;-69
2022/03/02 11:51:03;;;;;;;30.95;16.55;;;10.00;80.60;;;;;;5052414;28;20043;-69
2022/03/02 11:53:39;;;;;;;28.27;15.45;;;10.10;78.10;;;;;;5045753;28;20033;-69
2022/03/02 11:56:07;;;;;;;28.83;14.80;;;10.20;80.00;;;;;;5061347;28;20493;-69
2022/03/02 11:59:04;;;;;;;27.75;14.88;;;10.20;79.80;;;;;;5041787;28;20044;-69
2022/03/02 12:01:52;;;;;;;29.45;15.48;;;10.30;78.80;;;;;;5042578;28;20036;-69
2022/03/02 12:04:18;;;;;;;27.38;14.15;;;10.40;77.50;;;;;;5060093;28;20057;-69
2022/03/02 12:06:51;;;;;;;31.03;15.37;;;10.50;77.30;;;;;;5057729;28;20068;-69
2022/03/02 12:09:29;;;;;;;29.65;15.98;;;10.60;79.00;;;;;;5041725;28;20076;-70
2022/03/02 12:12:16;;;;;;;31.10;15.20;;;10.70;76.30;;;;;;5062412;28;20041;-69
2022/03/02 12:14:49;;;;;;;28.20;15.27;;;10.80;75.80;;;;;;5067180;28;20119;-67
2022/03/02 12:17:27;;;;;;;30.05;16.15;;;10.90;75.50;;;;;;5061310;28;20240;-70
2022/03/02 12:19:56;;;;;;;29.77;15.40;;;10.90;76.10;;;;;;5052122;28;20048;-70
2022/03/02 12:22:28;;;;;;;25.45;14.07;;;11.10;75.80;;;;;;5058220;28;20039;-70
2022/03/02 12:24:54;;;;;;;24.98;14.15;;;11.20;75.10;;;;;;5046757;28;20048;-70
2022/03/02 12:27:20;;;;;;;28.83;15.93;;;11.30;72.80;;;;;;5062078;28;20036;-70
2022/03/02 12:29:54;;;;;;;25.77;13.77;;;11.30;72.90;;;;;;5063208;28;20071;-70
2022/03/02 12:32:21;;;;;;;22.05;14.02;;;11.40;72.20;;;;;;5060818;28;20178;-70
2022/03/02 12:34:51;;;;;;;27.30;14.48;;;11.50;71.80;;;;;;5059051;28;20036;-70
2022/03/02 12:37:18;;;;;;;26.67;13.88;;;11.60;71.20;;;;;;5060155;28;20458;-70
2022/03/02 12:39:44;;;;;;;27.85;14.43;;;11.60;70.60;;;;;;5060435;28;20092;-70
2022/03/02 12:42:12;;;;;;;25.35;14.93;;;11.70;70.60;;;;;;5063516;28;20040;-71
2022/03/02 12:44:40;;;;;;;26.48;14.30;;;11.70;68.30;;;;;;5040047;28;20044;-70
2022/03/02 12:47:14;;;;;;;22.30;12.48;;;11.70;69.00;;;;;;5043431;28;20059;-70
2022/03/02 12:49:43;;;;;;;26.67;14.07;;;11.70;67.80;;;;;;5059445;28;20171;-71